Time;durP1;ratioP1;P1;durP2;ratioP2;P2;SDS_P1;SDS_P2;PMS_P1;PMS_P2;Temp;Humidity;BMP_temperature;BMP_pressure;BME280_temperature;BME280_humidity;BME280_pressure;Samples;Min_cycle;Max_cycle;Signal;HPM_P1;HPM_P2
2022/04/19 00:01:06;;;;;;;16.80;7.20;;;;;1.30;96991.40;;;;110836;1250;42602;-60
2022/04/19 00:03:36;;;;;;;17.10;6.80;;;;;1.20;96984.00;;;;110812;1251;41986;-59
2022/04/19 00:06:06;;;;;;;17.10;7.50;;;;;1.20;96985.40;;;;110820;1250;41976;-60
2022/04/19 00:08:37;;;;;;;17.90;6.90;;;;;1.20;96983.40;;;;110744;1250;42133;-59
2022/04/19 00:11:07;;;;;;;16.30;6.70;;;;;1.18;96983.40;;;;110653;1252;41909;-59
2022/04/19 00:13:37;;;;;;;14.00;6.80;;;;;1.20;96984.40;;;;110689;1251;42026;-60
2022/04/19 00:16:08;;;;;;;13.30;6.20;;;;;1.20;96982.60;;;;110687;1250;42247;-60
2022/04/19 00:18:39;;;;;;;18.20;6.90;;;;;1.20;96981.00;;;;110768;1250;41164;-60
2022/04/19 00:21:09;;;;;;;15.10;6.90;;;;;1.20;96976.20;;;;110650;1252;41951;-60
2022/04/19 00:23:40;;;;;;;18.50;7.80;;;;;1.20;96978.20;;;;110747;1251;41262;-59
2022/04/19 00:26:10;;;;;;;17.70;7.20;;;;;1.10;96972.80;;;;110808;1250;41770;-59
2022/04/19 00:28:41;;;;;;;16.50;7.20;;;;;1.10;96974.80;;;;110802;1252;43266;-59
2022/04/19 00:31:12;;;;;;;14.90;6.60;;;;;1.00;96975.80;;;;110651;1252;41604;-60
2022/04/19 00:33:44;;;;;;;13.70;6.00;;;;;1.00;96968.00;;;;110619;1252;42890;-59
2022/04/19 00:36:14;;;;;;;14.30;5.70;;;;;1.00;96963.40;;;;110701;1251;41158;-60
2022/04/19 00:38:44;;;;;;;15.00;6.60;;;;;1.00;96963.40;;;;110720;1250;41406;-59
2022/04/19 00:41:14;;;;;;;14.30;6.30;;;;;1.00;96961.60;;;;110617;1252;41146;-60
2022/04/19 00:43:45;;;;;;;14.10;5.90;;;;;1.00;96967.60;;;;110722;1252;41266;-60
2022/04/19 00:46:15;;;;;;;13.50;6.70;;;;;1.00;96970.60;;;;110709;1251;41155;-60
2022/04/19 00:48:45;;;;;;;13.80;6.10;;;;;0.92;96974.80;;;;110610;1253;41166;-59
2022/04/19 00:51:17;;;;;;;12.60;6.20;;;;;0.90;96970.20;;;;110753;1251;41199;-59
2022/04/19 00:53:47;;;;;;;14.20;6.30;;;;;0.90;96970.80;;;;110740;1250;41143;-60
2022/04/19 00:56:19;;;;;;;19.00;7.60;;;;;0.82;96968.00;;;;110727;1253;41149;-60
2022/04/19 00:58:50;;;;;;;;;;;;;0.80;96970.60;;;;110784;1252;41270;-60
2022/04/19 01:01:21;;;;;;;;;;;;;0.70;96969.20;;;;110705;1250;41158;-60
2022/04/19 01:03:52;;;;;;;13.30;6.20;;;;;0.68;96963.00;;;;110588;1251;41398;-60
2022/04/19 01:06:23;;;;;;;;;;;;;0.60;96963.20;;;;110626;1252;41188;-60
2022/04/19 01:08:54;;;;;;;15.00;6.50;;;;;0.54;96966.40;;;;110665;1252;41718;-60
2022/04/19 01:14:15;;;;;;;14.80;6.20;;;;;0.50;96960.20;;;;110578;1252;41598;-61
2022/04/19 01:16:46;;;;;;;17.30;6.10;;;;;0.40;96956.60;;;;110697;1252;41593;-60
2022/04/19 01:19:17;;;;;;;13.20;5.80;;;;;0.40;96954.60;;;;110492;1252;41158;-60
2022/04/19 01:21:51;;;;;;;11.90;5.60;;;;;0.40;96952.20;;;;110768;1250;41793;-60
2022/04/19 01:24:25;;;;;;;13.30;6.00;;;;;0.34;96952.40;;;;110792;1250;41227;-59
2022/04/19 01:26:59;;;;;;;12.90;5.80;;;;;0.30;96952.40;;;;110784;1250;41137;-60
2022/04/19 01:29:30;;;;;;;12.90;5.70;;;;;0.30;96947.00;;;;110676;1252;41256;-60
2022/04/19 01:32:05;;;;;;;14.00;6.50;;;;;0.30;96950.00;;;;110761;1250;42063;-60
2022/04/19 01:34:37;;;;;;;13.50;6.30;;;;;0.30;96950.00;;;;110838;1251;41144;-60
2022/04/19 01:37:15;;;;;;;14.50;6.40;;;;;0.30;96948.00;;;;110742;1251;41258;-59
2022/04/19 01:42:37;;;;;;;16.30;6.20;;;;;0.20;96954.60;;;;110789;1252;41202;-59
2022/04/19 01:45:09;;;;;;;11.80;6.10;;;;;0.20;96954.40;;;;110567;1252;41133;-59
2022/04/19 01:47:41;;;;;;;14.50;6.40;;;;;0.20;96955.80;;;;110600;1253;41149;-59
2022/04/19 01:50:15;;;;;;;18.10;7.00;;;;;0.18;96962.20;;;;110656;1252;41248;-60
2022/04/19 01:52:48;;;;;;;14.30;6.00;;;;;0.20;96963.60;;;;110742;1250;41144;-60
2022/04/19 01:55:24;;;;;;;14.00;6.20;;;;;0.10;96969.60;;;;110632;1252;41261;-60
2022/04/19 01:57:58;;;;;;;13.40;5.60;;;;;0.10;96970.60;;;;110717;1252;41265;-59
2022/04/19 02:00:36;;;;;;;16.90;6.30;;;;;0.10;96966.00;;;;110843;1250;41252;-60
2022/04/19 02:03:07;;;;;;;16.10;6.20;;;;;0.10;96971.80;;;;110768;1253;41606;-59
2022/04/19 02:05:38;;;;;;;14.10;6.10;;;;;0.10;96972.80;;;;110716;1250;41779;-60
2022/04/19 02:08:09;;;;;;;;;;;;;0.10;96972.80;;;;110591;1253;41146;-59
2022/04/19 02:10:41;;;;;;;15.10;6.20;;;;;0.10;96972.00;;;;110671;1252;41186;-59
2022/04/19 02:13:13;;;;;;;15.30;5.70;;;;;0.10;96963.80;;;;110650;1252;41272;-61
2022/04/19 02:16:09;;;;;;;14.50;5.80;;;;;0.10;96962.00;;;;110747;1251;41269;-60
2022/04/19 02:18:39;;;;;;;12.40;5.50;;;;;0.14;96957.40;;;;110693;1251;41504;-60
2022/04/19 02:21:10;;;;;;;12.90;6.10;;;;;0.20;96953.00;;;;110813;1251;41301;-59
2022/04/19 02:23:41;;;;;;;13.90;6.20;;;;;0.20;96949.20;;;;110659;1252;41636;-59
2022/04/19 02:26:12;;;;;;;13.70;6.00;;;;;0.20;96950.40;;;;110558;1252;41937;-59
2022/04/19 02:28:45;;;;;;;12.30;5.80;;;;;0.20;96950.60;;;;110701;1252;41594;-60
2022/04/19 02:31:21;;;;;;;15.40;6.50;;;;;0.10;96948.60;;;;110484;1252;42283;-59
2022/04/19 02:33:58;;;;;;;14.80;7.40;;;;;0.10;96939.00;;;;110721;1250;42117;-59
2022/04/19 02:36:29;;;;;;;19.90;8.10;;;;;0.10;96946.80;;;;110546;1254;41278;-59
2022/04/19 02:38:59;;;;;;;24.10;11.20;;;;;0.10;96943.80;;;;110518;1252;41335;-59
2022/04/19 02:41:30;;;;;;;22.20;10.10;;;;;0.10;96945.20;;;;110655;1252;41245;-60
2022/04/19 02:44:09;;;;;;;21.30;9.60;;;;;0.00;96949.20;;;;110751;1251;41282;-60
2022/04/19 02:46:39;;;;;;;18.50;8.50;;;;;0.00;96944.00;;;;110653;1251;41351;-59
2022/04/19 02:49:12;;;;;;;18.50;7.40;;;;;-0.06;96949.20;;;;110783;1251;41054;-59
2022/04/19 02:51:42;;;;;;;13.90;6.70;;;;;-0.10;96946.40;;;;110514;1252;41271;-59
2022/04/19 02:54:11;;;;;;;13.50;6.80;;;;;-0.10;96938.00;;;;110667;1252;41734;-60
2022/04/19 02:56:42;;;;;;;13.20;6.40;;;;;-0.10;96941.40;;;;110603;1252;41257;-60
2022/04/19 02:59:12;;;;;;;13.70;6.30;;;;;-0.10;96941.80;;;;110667;1252;41158;-60
2022/04/19 03:01:42;;;;;;;13.40;5.50;;;;;-0.14;96940.00;;;;110785;1250;41225;-60
2022/04/19 03:04:13;;;;;;;13.40;5.80;;;;;-0.20;96940.80;;;;110503;1253;41164;-59
2022/04/19 03:06:43;;;;;;;11.90;5.70;;;;;-0.20;96939.40;;;;110755;1251;42398;-60
2022/04/19 03:09:13;;;;;;;13.80;5.40;;;;;-0.20;96950.60;;;;110641;1252;42527;-59
2022/04/19 03:11:44;;;;;;;14.70;4.90;;;;;-0.20;96950.80;;;;110635;1252;41237;-60
2022/04/19 03:14:16;;;;;;;11.80;5.50;;;;;-0.28;96953.40;;;;110530;1254;41786;-59
2022/04/19 03:16:47;;;;;;;12.10;4.90;;;;;-0.28;96954.00;;;;110716;1252;41897;-58
2022/04/19 03:19:18;;;;;;;11.30;4.70;;;;;-0.20;96954.60;;;;110637;1252;41542;-60
2022/04/19 03:21:48;;;;;;;10.30;4.60;;;;;-0.20;96956.00;;;;110680;1253;41847;-59
2022/04/19 03:30:19;;;;;;;9.40;4.30;;;;;-0.30;96962.60;;;;110351;1256;42493;-59
2022/04/19 03:32:52;;;;;;;10.50;5.00;;;;;-0.30;96962.60;;;;110195;1259;41169;-60
2022/04/19 03:35:22;;;;;;;14.00;4.90;;;;;-0.30;96969.80;;;;110589;1253;41375;-59
2022/04/19 03:37:53;;;;;;;10.40;4.50;;;;;-0.30;96969.40;;;;110602;1253;41248;-59
2022/04/19 03:40:24;;;;;;;12.70;4.80;;;;;-0.30;96967.20;;;;110636;1253;41184;-59
2022/04/19 03:42:55;;;;;;;10.90;5.00;;;;;-0.24;96967.00;;;;110726;1253;41190;-60
2022/04/19 03:45:26;;;;;;;12.40;5.00;;;;;-0.20;96970.40;;;;110758;1253;41641;-60
2022/04/19 03:47:56;;;;;;;12.60;5.00;;;;;-0.20;96972.40;;;;110754;1253;41904;-59
2022/04/19 03:50:26;;;;;;;12.00;5.20;;;;;-0.14;96966.40;;;;110724;1250;41631;-59
2022/04/19 03:52:55;;;;;;;11.30;5.60;;;;;-0.10;96970.80;;;;110628;1252;41154;-59
2022/04/19 03:55:26;;;;;;;;;;;;;-0.04;96971.20;;;;110769;1250;41131;-59
2022/04/19 03:57:56;;;;;;;16.10;6.80;;;;;0.00;96980.40;;;;110743;1251;41267;-59
2022/04/19 04:00:26;;;;;;;15.00;6.20;;;;;-0.02;96983.60;;;;110541;1253;41166;-59
2022/04/19 04:02:55;;;;;;;14.70;6.40;;;;;-0.06;96992.80;;;;110704;1253;41839;-59
2022/04/19 04:05:28;;;;;;;11.00;5.70;;;;;0.00;96990.40;;;;110604;1253;41203;-59
2022/04/19 04:07:58;;;;;;;16.30;7.00;;;;;0.10;96995.80;;;;110788;1253;41986;-59
2022/04/19 04:10:32;;;;;;;15.30;7.20;;;;;0.10;97001.20;;;;110748;1251;41130;-59
2022/04/19 04:13:04;;;;;;;12.10;6.60;;;;;0.00;97002.00;;;;110492;1253;41249;-60
2022/04/19 04:15:35;;;;;;;13.10;5.60;;;;;0.02;97003.00;;;;110625;1253;41452;-59
2022/04/19 04:18:05;;;;;;;13.50;5.60;;;;;0.10;97014.40;;;;110423;1253;41182;-60
2022/04/19 04:20:35;;;;;;;10.40;4.90;;;;;0.20;97013.00;;;;110744;1252;41270;-60
2022/04/19 04:23:05;;;;;;;13.00;5.80;;;;;0.30;97015.00;;;;110677;1252;41306;-60
2022/04/19 04:25:34;;;;;;;10.90;5.20;;;;;0.40;97011.40;;;;110471;1254;42656;-60
2022/04/19 04:28:04;;;;;;;14.00;5.90;;;;;0.50;97017.20;;;;110597;1252;41610;-60
2022/04/19 04:30:41;;;;;;;11.90;5.40;;;;;0.60;97006.60;;;;110634;1253;41267;-59
2022/04/19 04:33:10;;;;;;;12.30;5.60;;;;;0.70;97006.60;;;;110625;1253;41826;-59
2022/04/19 04:35:41;;;;;;;11.50;4.90;;;;;0.80;97001.80;;;;110805;1251;41957;-59
2022/04/19 04:38:10;;;;;;;11.20;5.10;;;;;0.90;96998.00;;;;110772;1250;41364;-59
2022/04/19 04:40:40;;;;;;;11.60;5.30;;;;;0.96;96996.00;;;;110486;1252;41170;-59
2022/04/19 04:43:12;;;;;;;12.50;5.10;;;;;1.04;96997.80;;;;110632;1251;41182;-59
2022/04/19 04:45:43;;;;;;;14.30;6.80;;;;;1.10;96999.20;;;;110439;1253;41649;-59
2022/04/19 04:51:02;;;;;;;27.10;10.20;;;;;1.30;97003.80;;;;110584;1252;41137;-59
2022/04/19 04:53:32;;;;;;;25.70;11.50;;;;;1.36;97004.80;;;;110502;1253;41361;-58
2022/04/19 04:56:23;;;;;;;32.80;13.90;;;;;1.40;97006.40;;;;110653;1251;41269;-59
2022/04/19 04:58:53;;;;;;;28.80;14.00;;;;;1.50;97008.40;;;;110600;1252;41273;-59
2022/04/19 05:01:23;;;;;;;31.30;14.50;;;;;1.60;97007.80;;;;110367;1254;41833;-59
2022/04/19 05:03:53;;;;;;;32.80;13.60;;;;;1.68;97014.20;;;;110702;1251;41715;-59
2022/04/19 05:06:22;;;;;;;24.50;11.80;;;;;1.70;97013.40;;;;110440;1254;41177;-60
2022/04/19 05:08:51;;;;;;;27.10;11.30;;;;;1.80;97011.00;;;;110618;1253;41182;-60
2022/04/19 05:11:21;;;;;;;24.40;10.80;;;;;1.90;97004.80;;;;110511;1252;41862;-59
2022/04/19 05:13:50;;;;;;;19.90;9.50;;;;;2.00;97014.60;;;;110643;1252;41195;-59
2022/04/19 05:16:20;;;;;;;21.10;9.70;;;;;2.10;97004.20;;;;110603;1252;42362;-59
2022/04/19 05:18:50;;;;;;;22.40;10.30;;;;;2.20;97003.00;;;;110639;1252;41318;-60
2022/04/19 05:21:22;;;;;;;20.50;8.60;;;;;2.28;97006.00;;;;110637;1251;41554;-60
2022/04/19 05:23:51;;;;;;;18.30;7.90;;;;;2.30;97005.80;;;;110648;1252;41908;-60
2022/04/19 05:26:24;;;;;;;15.60;6.70;;;;;2.40;97005.80;;;;110531;1254;41151;-59
2022/04/19 05:28:55;;;;;;;14.60;6.40;;;;;2.40;97014.00;;;;110700;1251;41153;-60
2022/04/19 05:31:24;;;;;;;12.90;6.50;;;;;2.50;97010.80;;;;110646;1252;42332;-59
2022/04/19 05:33:54;;;;;;;12.10;4.70;;;;;2.58;97007.80;;;;110490;1252;42491;-60
2022/04/19 05:36:23;;;;;;;12.00;4.60;;;;;2.70;97011.00;;;;110423;1254;41841;-60
2022/04/19 05:38:53;;;;;;;11.00;4.80;;;;;2.80;97011.80;;;;110452;1254;41264;-60
2022/04/19 05:41:24;;;;;;;13.40;5.60;;;;;2.92;97010.40;;;;110550;1253;41265;-60
2022/04/19 05:43:53;;;;;;;10.70;5.10;;;;;3.12;97012.00;;;;110551;1252;42557;-60
2022/04/19 05:46:23;;;;;;;11.00;5.40;;;;;3.30;97015.80;;;;110725;1252;41265;-60
2022/04/19 05:48:53;;;;;;;12.30;5.30;;;;;3.46;97014.60;;;;110565;1254;41121;-58
2022/04/19 05:51:22;;;;;;;11.60;4.60;;;;;3.62;97016.60;;;;110472;1252;41162;-59
2022/04/19 05:53:51;;;;;;;10.60;5.00;;;;;3.88;97017.60;;;;110569;1254;41624;-60
2022/04/19 05:56:20;;;;;;;11.50;4.60;;;;;4.12;97014.80;;;;110716;1251;41742;-60
2022/04/19 05:58:50;;;;;;;10.90;3.70;;;;;4.34;97018.00;;;;110560;1253;41165;-60
2022/04/19 06:01:20;;;;;;;9.50;3.90;;;;;4.66;97017.40;;;;110802;1251;41280;-59
2022/04/19 06:06:39;;;;;;;8.60;3.60;;;;;5.10;97010.00;;;;110759;1252;41170;-59
2022/04/19 06:09:12;;;;;;;9.50;3.40;;;;;5.28;97012.40;;;;110621;1253;41165;-60
2022/04/19 06:11:42;;;;;;;9.10;3.50;;;;;5.38;97011.00;;;;110682;1252;41334;-60
2022/04/19 06:14:12;;;;;;;8.20;3.40;;;;;5.42;97006.60;;;;110483;1254;41954;-59
2022/04/19 06:16:41;;;;;;;9.30;3.40;;;;;5.50;97005.40;;;;110707;1252;41142;-62
2022/04/19 06:19:11;;;;;;;9.40;3.40;;;;;5.50;97010.00;;;;110610;1251;41259;-60
2022/04/19 06:21:41;;;;;;;8.90;3.30;;;;;5.50;97007.00;;;;110792;1251;41281;-60
2022/04/19 06:24:11;;;;;;;9.10;3.30;;;;;5.56;97009.00;;;;110700;1251;41258;-59
2022/04/19 06:26:40;;;;;;;9.40;3.50;;;;;5.70;97014.80;;;;110254;1251;621991;-60
2022/04/19 06:29:18;;;;;;;9.20;3.80;;;;;5.80;97010.20;;;;110665;1252;42999;-60
2022/04/19 06:31:58;;;;;;;8.40;3.10;;;;;5.90;97009.20;;;;110750;1252;41141;-58
2022/04/19 06:34:33;;;;;;;8.40;3.40;;;;;6.08;97012.40;;;;110787;1251;41259;-58
2022/04/19 06:37:06;;;;;;;8.00;3.30;;;;;6.22;97005.80;;;;110688;1252;41912;-59
2022/04/19 06:39:35;;;;;;;9.40;3.50;;;;;6.40;97004.60;;;;110754;1251;41250;-60
2022/04/19 06:42:05;;;;;;;10.60;3.90;;;;;6.52;97003.20;;;;110666;1252;41136;-60
2022/04/19 06:44:54;;;;;;;9.30;3.30;;;;;6.60;97002.60;;;;110707;1251;41279;-59
2022/04/19 06:47:27;;;;;;;11.70;3.70;;;;;6.76;96999.40;;;;110577;1252;42075;-59
2022/04/19 06:49:59;;;;;;;10.20;3.80;;;;;6.88;96998.80;;;;110750;1251;41147;-59
2022/04/19 06:52:29;;;;;;;8.60;3.50;;;;;6.90;96995.60;;;;110698;1251;41261;-59
2022/04/19 06:55:00;;;;;;;10.10;3.80;;;;;7.10;96994.80;;;;110673;1253;41160;-60
2022/04/19 06:57:29;;;;;;;10.40;4.00;;;;;7.20;96992.40;;;;110764;1251;41270;-59
2022/04/19 07:00:00;;;;;;;11.50;4.20;;;;;7.30;96991.40;;;;110709;1251;41167;-60
2022/04/19 07:02:30;;;;;;;11.30;4.00;;;;;7.40;96990.80;;;;110702;1253;41176;-59
2022/04/19 07:05:31;;;;;;;8.50;3.40;;;;;7.50;96986.60;;;;110606;1253;41261;-59
2022/04/19 07:08:03;;;;;;;8.40;3.20;;;;;7.60;96987.60;;;;110606;1251;41155;-59
2022/04/19 07:10:33;;;;;;;8.10;3.70;;;;;7.80;96983.60;;;;110660;1253;41232;-60
2022/04/19 07:13:25;;;;;;;8.40;3.60;;;;;8.00;96983.60;;;;110665;1251;41314;-59
2022/04/19 07:15:55;;;;;;;8.30;3.40;;;;;8.00;96980.60;;;;110539;1253;41158;-60
2022/04/19 07:18:25;;;;;;;8.20;3.50;;;;;8.10;96985.20;;;;110568;1253;42279;-60
2022/04/19 07:26:44;;;;;;;7.10;2.80;;;;;8.60;96981.80;;;;110661;1251;41412;-60
2022/04/19 07:29:18;;;;;;;6.50;2.70;;;;;8.80;96979.80;;;;110620;1253;41645;-59
2022/04/19 07:31:49;;;;;;;8.50;3.70;;;;;9.10;96977.80;;;;110542;1254;41713;-60
2022/04/19 07:34:39;;;;;;;8.80;3.30;;;;;9.40;96977.80;;;;110688;1251;41732;-60
2022/04/19 07:37:08;;;;;;;9.20;3.60;;;;;9.48;96974.20;;;;110781;1251;41156;-59
2022/04/19 07:39:37;;;;;;;8.80;3.40;;;;;9.48;96971.60;;;;110761;1251;41161;-60
2022/04/19 07:42:08;;;;;;;8.00;3.30;;;;;9.50;96967.00;;;;110783;1250;41164;-60
2022/04/19 07:44:39;;;;;;;;;;;;;9.70;96965.00;;;;110643;1253;41629;-59
2022/04/19 07:47:11;;;;;;;8.50;3.20;;;;;9.80;96967.80;;;;110692;1251;41412;-59
2022/04/19 07:49:42;;;;;;;8.30;3.20;;;;;9.80;96964.00;;;;110614;1253;41837;-59
2022/04/19 07:52:11;;;;;;;6.90;2.70;;;;;9.90;96958.60;;;;110614;1253;41660;-59
2022/04/19 07:54:42;;;;;;;7.40;2.80;;;;;10.10;96958.80;;;;110813;1251;42473;-60
2022/04/19 07:57:11;;;;;;;7.90;3.20;;;;;10.24;96956.80;;;;110540;1253;41212;-59
2022/04/19 07:59:41;;;;;;;9.40;3.20;;;;;10.40;96951.00;;;;110786;1249;41164;-59
2022/04/19 08:02:10;;;;;;;9.50;3.60;;;;;10.50;96954.20;;;;110721;1253;41253;-60
2022/04/19 08:04:40;;;;;;;9.60;3.90;;;;;10.70;96954.00;;;;110699;1251;41420;-59
2022/04/19 08:07:11;;;;;;;10.10;4.10;;;;;10.90;96948.60;;;;110641;1251;42582;-58
2022/04/19 08:09:42;;;;;;;11.20;5.10;;;;;10.90;96952.80;;;;110633;1253;41968;-58
2022/04/19 08:12:15;;;;;;;9.30;4.10;;;;;10.82;96954.00;;;;110542;1254;41146;-58
2022/04/19 08:14:47;;;;;;;10.20;4.30;;;;;10.80;96943.80;;;;110671;1253;41191;-58
2022/04/19 08:17:18;;;;;;;15.20;5.10;;;;;11.00;96949.60;;;;110566;1251;41778;-58
2022/04/19 08:19:49;;;;;;;15.00;5.00;;;;;11.00;96944.60;;;;110726;1252;41266;-59
2022/04/19 08:22:21;;;;;;;15.50;6.60;;;;;11.10;96943.20;;;;110495;1254;41185;-60
2022/04/19 08:25:03;;;;;;;14.80;6.60;;;;;11.20;96938.60;;;;110737;1252;41271;-59
2022/04/19 08:27:42;;;;;;;14.30;6.30;;;;;11.30;96939.60;;;;110768;1251;41140;-59
2022/04/19 08:30:15;;;;;;;14.20;5.20;;;;;11.30;96944.20;;;;110638;1253;41631;-59
2022/04/19 08:32:46;;;;;;;12.70;5.30;;;;;11.30;96941.00;;;;110487;1254;41148;-59
2022/04/19 08:35:18;;;;;;;9.90;4.80;;;;;11.50;96936.80;;;;110619;1253;41637;-59
2022/04/19 08:37:49;;;;;;;12.20;5.00;;;;;11.60;96941.60;;;;110696;1251;41168;-59
2022/04/19 08:40:21;;;;;;;9.50;4.40;;;;;11.70;96938.40;;;;110752;1253;41142;-58
2022/04/19 08:42:56;;;;;;;10.50;5.10;;;;;11.90;96935.60;;;;110698;1251;41796;-59
2022/04/19 08:45:26;;;;;;;11.60;4.40;;;;;12.12;96936.80;;;;110812;1251;41613;-59
2022/04/19 08:47:58;;;;;;;;;;;;;12.30;96933.40;;;;110703;1253;41886;-59
2022/04/19 08:50:29;;;;;;;9.30;4.10;;;;;12.50;96934.00;;;;110433;1255;41272;-60
2022/04/19 08:58:33;;;;;;;7.60;3.10;;;;;13.36;96927.80;;;;110638;1254;41611;-60
2022/04/19 09:01:02;;;;;;;8.10;2.90;;;;;13.60;96929.00;;;;110666;1252;42427;-59
2022/04/19 09:03:33;;;;;;;9.00;2.70;;;;;13.70;96928.60;;;;110628;1251;41142;-60
2022/04/19 09:06:03;;;;;;;6.90;2.60;;;;;13.84;96926.20;;;;110574;1252;41679;-60
2022/04/19 09:08:33;;;;;;;6.30;2.50;;;;;13.90;96924.60;;;;110549;1252;41414;-60
2022/04/19 09:11:08;;;;;;;4.80;2.10;;;;;13.90;96921.80;;;;110599;1253;41262;-60
2022/04/19 09:13:38;;;;;;;5.70;2.20;;;;;13.80;96922.00;;;;110589;1251;41161;-60
2022/04/19 09:16:08;;;;;;;5.80;2.30;;;;;13.80;96923.00;;;;110668;1249;41137;-60
2022/04/19 09:18:37;;;;;;;5.60;2.30;;;;;13.80;96917.80;;;;110661;1252;41949;-60
2022/04/19 09:21:07;;;;;;;5.80;2.20;;;;;13.80;96917.40;;;;110634;1251;41208;-60
2022/04/19 09:23:36;;;;;;;6.40;2.40;;;;;13.80;96917.00;;;;110640;1251;41403;-59
2022/04/19 09:26:08;;;;;;;7.00;2.70;;;;;13.70;96925.40;;;;110640;1251;41150;-58
2022/04/19 09:28:38;;;;;;;5.60;2.40;;;;;13.70;96921.00;;;;110729;1251;41136;-59
2022/04/19 09:31:11;;;;;;;5.80;2.40;;;;;13.70;96921.60;;;;110648;1252;41157;-58
2022/04/19 09:33:40;;;;;;;6.40;2.40;;;;;14.10;96916.00;;;;110654;1251;42083;-59
2022/04/19 09:36:09;;;;;;;5.20;2.30;;;;;14.84;96900.60;;;;110604;1253;41176;-59
2022/04/19 09:38:43;;;;;;;7.00;2.70;;;;;16.16;96901.60;;;;110682;1253;41393;-59
2022/04/19 09:41:32;;;;;;;5.30;2.40;;;;;17.82;96892.20;;;;110671;1251;41144;-59
2022/04/19 09:44:16;;;;;;;5.90;2.30;;;;;19.98;96885.40;;;;110731;1251;42624;-59
2022/04/19 09:47:09;;;;;;;5.70;2.20;;;;;21.68;96874.20;;;;110730;1251;41172;-59
2022/04/19 09:49:51;;;;;;;5.30;2.00;;;;;23.72;96865.40;;;;110695;1251;41147;-59
2022/04/19 09:52:20;;;;;;;6.80;2.10;;;;;25.52;96855.80;;;;110703;1251;42417;-60
2022/04/19 09:55:03;;;;;;;5.80;2.10;;;;;26.96;96853.60;;;;110536;1254;41596;-60
2022/04/19 09:57:35;;;;;;;7.20;2.70;;;;;28.16;96853.80;;;;110629;1253;41253;-60
2022/04/19 10:00:09;;;;;;;6.90;2.90;;;;;28.80;96857.40;;;;110666;1251;41248;-60
2022/04/19 10:08:21;;;;;;;5.80;2.30;;;;;24.00;96870.80;;;;110526;1253;41496;-60
2022/04/19 10:10:52;;;;;;;6.20;2.30;;;;;22.36;96869.20;;;;110577;1251;41625;-60
2022/04/19 10:13:24;;;;;;;7.70;3.10;;;;;22.68;96861.60;;;;110669;1251;42390;-60
2022/04/19 10:15:54;;;;;;;8.20;3.20;;;;;23.56;96875.20;;;;110646;1251;41374;-60
2022/04/19 10:18:23;;;;;;;4.60;2.00;;;;;22.80;96873.80;;;;110663;1251;41251;-60
2022/04/19 10:20:56;;;;;;;5.20;2.10;;;;;22.60;96875.20;;;;110679;1251;41256;-60
2022/04/19 10:23:34;;;;;;;3.80;1.80;;;;;21.84;96879.80;;;;110627;1251;41162;-60
2022/04/19 10:26:18;;;;;;;4.20;1.80;;;;;21.04;96882.00;;;;110679;1251;41213;-60
2022/04/19 10:28:52;;;;;;;5.40;2.00;;;;;20.50;96882.20;;;;110660;1251;41177;-61
2022/04/19 10:31:34;;;;;;;5.70;2.30;;;;;20.14;96883.20;;;;110696;1251;41164;-60
2022/04/19 10:34:05;;;;;;;8.80;2.70;;;;;20.74;96861.80;;;;110649;1251;41464;-60
2022/04/19 10:36:39;;;;;;;5.80;2.30;;;;;23.04;96852.00;;;;110593;1251;41950;-59
2022/04/19 10:39:11;;;;;;;5.70;2.30;;;;;24.72;96851.60;;;;110601;1251;41259;-59
2022/04/19 10:41:53;;;;;;;5.90;2.50;;;;;25.92;96864.00;;;;110639;1251;41436;-60
2022/04/19 10:44:30;;;;;;;6.10;2.40;;;;;25.36;96864.20;;;;110560;1253;41913;-60
2022/04/19 10:47:14;;;;;;;5.70;2.40;;;;;24.12;96868.80;;;;110634;1251;41169;-60
2022/04/19 10:50:04;;;;;;;7.70;2.60;;;;;23.00;96874.80;;;;110366;1253;41759;-60
2022/04/19 10:52:37;;;;;;;7.60;2.60;;;;;21.92;96883.40;;;;110542;1253;41548;-59
2022/04/19 10:55:08;;;;;;;4.80;2.20;;;;;21.10;96888.40;;;;110609;1254;41756;-60
2022/04/19 11:00:34;;;;;;;4.80;2.00;;;;;19.82;96889.20;;;;110621;1253;41211;-60
2022/04/19 11:03:26;;;;;;;5.50;2.20;;;;;19.40;96887.00;;;;110598;1253;42449;-60
2022/04/19 11:05:57;;;;;;;7.30;2.50;;;;;19.20;96877.80;;;;110644;1253;41773;-60
2022/04/19 11:08:26;;;;;;;6.30;2.40;;;;;20.50;96860.00;;;;110631;1253;42520;-60
2022/04/19 11:10:55;;;;;;;7.30;2.90;;;;;22.70;96858.60;;;;110633;1251;41848;-60
2022/04/19 11:13:27;;;;;;;6.50;2.50;;;;;24.64;96853.40;;;;110619;1251;41138;-61
2022/04/19 11:16:14;;;;;;;7.20;2.60;;;;;26.36;96840.00;;;;110618;1253;42443;-60
2022/04/19 11:18:44;;;;;;;5.30;2.40;;;;;27.30;96841.00;;;;110490;1253;41282;-59
2022/04/19 11:21:52;;;;;;;6.30;2.60;;;;;28.32;96842.40;;;;110531;1253;41508;-60
2022/04/19 11:24:59;;;;;;;7.10;2.70;;;;;26.76;96840.60;;;;110596;1253;41609;-60
2022/04/19 11:27:52;;;;;;;6.00;2.30;;;;;26.60;96841.60;;;;110616;1253;41269;-60
2022/04/19 11:30:23;;;;;;;7.20;2.60;;;;;26.50;96833.20;;;;110531;1254;41246;-59
2022/04/19 11:32:53;;;;;;;;;;;;;26.38;96846.00;;;;110642;1252;41199;-60
2022/04/19 11:35:23;;;;;;;7.00;2.70;;;;;25.88;96848.20;;;;110527;1253;41594;-60
2022/04/19 11:37:52;;;;;;;5.30;2.30;;;;;23.86;96852.60;;;;110671;1251;41635;-61
2022/04/19 11:47:03;;;;;;;4.60;2.10;;;;;19.88;96866.80;;;;110658;1251;42202;-60
2022/04/19 11:49:00;;;;;;;5.20;2.40;;;;;19.02;96866.80;;;;110532;1253;41183;-59
2022/04/19 11:51:30;;;;;;;6.30;2.20;;;;;18.20;96861.20;;;;110619;1251;41242;-60
2022/04/19 11:53:59;;;;;;;6.00;2.30;;;;;17.76;96865.80;;;;110596;1252;41942;-60
2022/04/19 11:56:29;;;;;;;6.00;2.60;;;;;17.34;96859.80;;;;110635;1251;41966;-60
2022/04/19 11:59:00;;;;;;;5.40;2.30;;;;;16.80;96860.00;;;;110765;1251;41470;-60
2022/04/19 12:01:29;;;;;;;5.60;2.20;;;;;16.60;96858.60;;;;110503;1254;41205;-60
2022/04/19 12:03:58;;;;;;;4.40;1.90;;;;;16.70;96850.80;;;;110509;1253;41171;-60
2022/04/19 12:06:28;;;;;;;6.70;2.00;;;;;16.90;96854.00;;;;110630;1251;41749;-60
2022/04/19 12:08:57;;;;;;;4.60;1.90;;;;;17.04;96850.60;;;;110690;1251;41153;-60
2022/04/19 12:11:28;;;;;;;8.00;2.50;;;;;17.56;96828.80;;;;110781;1251;42395;-60
2022/04/19 12:13:57;;;;;;;4.70;2.00;;;;;19.34;96843.80;;;;110814;1251;41154;-60
2022/04/19 12:16:34;;;;;;;4.80;2.00;;;;;20.26;96835.80;;;;110832;1251;41135;-60
2022/04/19 12:19:07;;;;;;;5.60;2.10;;;;;20.70;96834.20;;;;110730;1251;41140;-59
2022/04/19 12:21:44;;;;;;;4.80;1.80;;;;;20.60;96825.20;;;;110618;1251;41145;-60
2022/04/19 12:24:28;;;;;;;6.60;2.20;;;;;20.40;96828.80;;;;110567;1251;41188;-59
2022/04/19 12:27:04;;;;;;;5.50;2.20;;;;;19.58;96830.20;;;;110610;1253;41161;-60
2022/04/19 12:29:35;;;;;;;3.60;1.80;;;;;19.10;96828.40;;;;110695;1251;42271;-60
2022/04/19 12:32:06;;;;;;;4.80;2.00;;;;;19.00;96830.20;;;;110668;1251;41280;-60
2022/04/19 12:34:36;;;;;;;3.20;1.80;;;;;19.12;96825.20;;;;110671;1252;41614;-60
2022/04/19 12:37:07;;;;;;;4.00;1.80;;;;;19.30;96834.80;;;;110671;1251;41175;-60
2022/04/19 12:39:36;;;;;;;4.80;2.00;;;;;19.30;96833.00;;;;110659;1253;41627;-60
2022/04/19 12:42:07;;;;;;;5.00;2.10;;;;;19.28;96832.20;;;;110446;1254;41422;-60
2022/04/19 12:44:37;;;;;;;3.50;1.70;;;;;19.04;96825.40;;;;110506;1254;42085;-59
2022/04/19 12:47:19;;;;;;;7.80;2.30;;;;;19.10;96821.80;;;;110584;1252;41525;-60
2022/04/19 12:49:48;;;;;;;5.60;2.10;;;;;18.80;96821.80;;;;110674;1251;41675;-60
2022/04/19 12:52:18;;;;;;;4.50;2.00;;;;;18.72;96822.80;;;;110572;1252;41336;-60
2022/04/19 12:54:59;;;;;;;4.60;2.10;;;;;18.50;96824.00;;;;110633;1250;41458;-60
2022/04/19 12:57:28;;;;;;;6.20;2.30;;;;;18.02;96819.40;;;;110652;1251;42410;-60
2022/04/19 12:59:57;;;;;;;4.40;2.00;;;;;17.26;96817.20;;;;110403;1252;41668;-60
2022/04/19 13:02:27;;;;;;;5.70;2.40;;;;;17.00;96823.80;;;;110815;1250;41154;-60
2022/04/19 13:04:57;;;;;;;4.50;2.00;;;;;17.02;96828.00;;;;110569;1252;41254;-60
2022/04/19 13:13:09;;;;;;;5.90;2.30;;;;;17.82;96822.60;;;;110522;1254;41952;-61
2022/04/19 13:15:39;;;;;;;4.70;2.00;;;;;18.00;96818.20;;;;110614;1251;41285;-60
2022/04/19 13:18:08;;;;;;;5.10;2.10;;;;;18.00;96823.60;;;;110499;1253;41148;-61
2022/04/19 13:20:37;;;;;;;4.90;2.10;;;;;18.00;96817.20;;;;110602;1252;41310;-61
2022/04/19 13:23:08;;;;;;;7.80;2.30;;;;;18.00;96815.60;;;;110613;1252;41156;-61
2022/04/19 13:25:40;;;;;;;3.90;1.80;;;;;18.00;96813.40;;;;110681;1251;41711;-59